Time;durP1;ratioP1;P1;durP2;ratioP2;P2;SDS_P1;SDS_P2;PMS_P1;PMS_P2;Temp;Humidity;BMP_temperature;BMP_pressure;BME280_temperature;BME280_humidity;BME280_pressure;Samples;Min_cycle;Max_cycle;Signal;HPM_P1;HPM_P2
2022/03/17 00:00:08;;;;;;;1.30;0.70;;;19.40;59.40;;;;;;5033425;28;20519;-63
2022/03/17 00:02:34;;;;;;;1.40;0.80;;;19.40;59.40;;;;;;5033367;28;20017;-63
2022/03/17 00:05:00;;;;;;;2.10;0.90;;;19.40;59.50;;;;;;5034174;28;20083;-63
2022/03/17 00:07:25;;;;;;;1.42;0.85;;;19.30;59.50;;;;;;5033342;28;20030;-63
2022/03/17 00:09:51;;;;;;;2.42;1.08;;;19.40;59.60;;;;;;5034334;28;20136;-63
2022/03/17 00:12:17;;;;;;;1.63;0.82;;;19.30;59.50;;;;;;5034349;28;20486;-63
2022/03/17 00:14:42;;;;;;;1.60;0.75;;;19.30;59.50;;;;;;5034147;28;20032;-63
2022/03/17 00:17:08;;;;;;;1.35;0.80;;;19.30;59.50;;;;;;5033924;28;20048;-63
2022/03/17 00:19:36;;;;;;;0.73;0.68;;;19.30;59.50;;;;;;5034089;28;20075;-63
2022/03/17 00:22:04;;;;;;;1.50;0.80;;;19.30;59.50;;;;;;5016742;28;20029;-63
2022/03/17 00:24:30;;;;;;;2.33;0.98;;;19.30;59.50;;;;;;5032823;28;20041;-63
2022/03/17 00:26:55;;;;;;;1.52;0.82;;;19.30;59.60;;;;;;5034218;28;20028;-63
2022/03/17 00:29:21;;;;;;;1.75;0.60;;;19.30;59.60;;;;;;5034283;28;20022;-63
2022/03/17 00:31:47;;;;;;;1.45;0.60;;;19.30;59.60;;;;;;5032405;28;20052;-63
2022/03/17 00:34:12;;;;;;;2.20;0.80;;;19.30;59.70;;;;;;5033925;28;20025;-63
2022/03/17 00:36:38;;;;;;;1.63;0.90;;;19.30;59.70;;;;;;5033784;28;20022;-63
2022/03/17 00:39:04;;;;;;;1.30;0.70;;;19.30;59.70;;;;;;5033735;28;20379;-63
2022/03/17 00:41:30;;;;;;;3.10;0.80;;;19.30;59.70;;;;;;5032605;28;20018;-63
2022/03/17 00:43:56;;;;;;;2.38;0.90;;;19.30;59.70;;;;;;5033635;28;20032;-63
2022/03/17 00:46:22;;;;;;;2.92;0.80;;;19.30;59.80;;;;;;5033517;28;20037;-63
2022/03/17 00:48:47;;;;;;;1.00;0.63;;;19.30;59.80;;;;;;5033619;28;20022;-63
2022/03/17 00:51:13;;;;;;;3.17;0.80;;;19.20;59.80;;;;;;5032337;28;20032;-63
2022/03/17 00:53:38;;;;;;;1.17;0.60;;;19.30;59.90;;;;;;5033285;28;20021;-63
2022/03/17 00:56:04;;;;;;;1.73;0.60;;;19.30;59.80;;;;;;5033552;28;20476;-63
2022/03/17 00:58:30;;;;;;;1.42;0.70;;;19.20;59.80;;;;;;5033555;28;20029;-63
2022/03/17 01:00:56;;;;;;;1.60;0.80;;;19.20;59.80;;;;;;5033010;28;20044;-63
2022/03/17 01:03:22;;;;;;;2.38;0.90;;;19.20;59.90;;;;;;5032072;28;20029;-63
2022/03/17 01:05:47;;;;;;;1.17;0.70;;;19.20;59.90;;;;;;5032607;28;20037;-63
2022/03/17 01:08:13;;;;;;;3.60;0.80;;;19.20;59.90;;;;;;5015526;28;20064;-63
2022/03/17 01:10:39;;;;;;;2.58;0.80;;;19.20;59.90;;;;;;5016067;28;20067;-63
2022/03/17 01:13:05;;;;;;;1.90;0.80;;;19.20;59.90;;;;;;5032921;28;20503;-63
2022/03/17 01:15:31;;;;;;;3.22;0.85;;;19.20;60.00;;;;;;5032869;28;20567;-63
2022/03/17 01:17:57;;;;;;;1.17;0.60;;;19.20;60.00;;;;;;5032939;28;20109;-63
2022/03/17 01:20:22;;;;;;;3.25;0.85;;;19.20;60.00;;;;;;5033036;28;20459;-63
2022/03/17 01:22:48;;;;;;;1.60;0.85;;;19.20;60.00;;;;;;5035972;28;20040;-63
2022/03/17 01:25:14;;;;;;;0.70;0.60;;;19.20;60.00;;;;;;5051846;28;20100;-63
2022/03/17 01:27:39;;;;;;;3.28;1.20;;;19.20;60.00;;;;;;5052769;28;20441;-63
2022/03/17 01:30:07;;;;;;;1.98;1.10;;;19.20;60.00;;;;;;5052388;28;20471;-63
2022/03/17 01:32:33;;;;;;;2.08;0.80;;;19.20;60.10;;;;;;5051578;28;20109;-63
2022/03/17 01:34:59;;;;;;;3.30;0.95;;;19.20;60.00;;;;;;5051374;28;20107;-63
2022/03/17 01:37:25;;;;;;;1.33;0.80;;;19.20;60.10;;;;;;5051440;28;20021;-63
2022/03/17 01:39:50;;;;;;;0.88;0.75;;;19.20;60.10;;;;;;5052634;28;20048;-63
2022/03/17 01:42:16;;;;;;;0.98;0.70;;;19.20;60.10;;;;;;5052439;28;20021;-63
2022/03/17 01:44:42;;;;;;;1.73;0.82;;;19.20;60.10;;;;;;5052594;28;20021;-63
2022/03/17 01:49:51;;;;;;;1.92;0.63;;;19.10;60.10;;;;;;5052478;28;20082;-63
2022/03/17 01:52:18;;;;;;;1.80;0.70;;;19.10;60.20;;;;;;5051185;28;20426;-63
2022/03/17 01:54:44;;;;;;;1.73;0.70;;;19.10;60.20;;;;;;5052919;28;20040;-63
2022/03/17 01:57:10;;;;;;;1.05;0.57;;;19.10;60.20;;;;;;5034259;28;20479;-63
2022/03/17 01:59:38;;;;;;;1.63;0.68;;;19.10;60.20;;;;;;5052497;28;20406;-63
2022/03/17 02:02:08;;;;;;;1.75;0.95;;;19.10;60.20;;;;;;5052273;28;20009;-63
2022/03/17 02:04:35;;;;;;;4.22;1.05;;;19.10;60.30;;;;;;5052294;28;20040;-63
2022/03/17 02:07:03;;;;;;;1.95;0.90;;;19.00;60.20;;;;;;5050853;28;20029;-63
2022/03/17 02:09:29;;;;;;;0.90;0.65;;;19.00;60.20;;;;;;5034787;28;20038;-63
2022/03/17 02:14:52;;;;;;;1.30;0.82;;;19.00;60.30;;;;;;5040732;28;20079;-63
2022/03/17 02:17:18;;;;;;;1.15;0.60;;;19.10;60.30;;;;;;5050161;28;20036;-63
2022/03/17 02:19:44;;;;;;;0.57;0.50;;;19.00;60.40;;;;;;5052140;28;20029;-63
2022/03/17 02:22:12;;;;;;;1.00;0.65;;;19.00;60.40;;;;;;5052353;28;20024;-63
2022/03/17 02:27:23;;;;;;;1.20;0.63;;;19.00;60.40;;;;;;5050845;28;20502;-63
2022/03/17 02:29:49;;;;;;;1.70;0.60;;;19.00;60.40;;;;;;5034467;28;20115;-63
2022/03/17 02:32:17;;;;;;;1.55;0.80;;;19.00;60.40;;;;;;5052158;28;20123;-63
2022/03/17 02:34:44;;;;;;;1.25;0.60;;;19.00;60.50;;;;;;5051982;28;20078;-63
2022/03/17 02:37:12;;;;;;;1.00;0.73;;;19.00;60.50;;;;;;5051845;28;20087;-63
2022/03/17 02:39:38;;;;;;;0.90;0.55;;;19.00;60.50;;;;;;5034244;28;20394;-63
2022/03/17 02:42:05;;;;;;;2.28;0.73;;;19.00;60.50;;;;;;5050517;28;20100;-63
2022/03/17 02:44:32;;;;;;;1.33;0.50;;;18.90;60.50;;;;;;5052170;28;20502;-63
2022/03/17 02:46:58;;;;;;;0.93;0.70;;;19.00;60.60;;;;;;5051828;28;20059;-63
2022/03/17 02:49:23;;;;;;;3.63;1.00;;;19.00;60.60;;;;;;5051721;28;20021;-63
2022/03/17 02:51:49;;;;;;;3.28;0.90;;;19.00;60.60;;;;;;5051865;28;20017;-63
2022/03/17 02:54:15;;;;;;;1.70;0.73;;;18.90;60.50;;;;;;5052124;28;20078;-63
2022/03/17 02:56:40;;;;;;;2.25;0.70;;;18.90;60.60;;;;;;5051698;28;20100;-63
2022/03/17 02:59:06;;;;;;;1.38;0.90;;;18.90;60.60;;;;;;5050353;28;20032;-63
2022/03/17 03:01:32;;;;;;;1.08;0.60;;;18.90;60.60;;;;;;5033852;28;20414;-63
2022/03/17 03:03:58;;;;;;;1.13;0.70;;;18.90;60.60;;;;;;5050645;28;20043;-63
2022/03/17 03:06:23;;;;;;;1.30;0.60;;;18.90;60.70;;;;;;5034323;28;20025;-63
2022/03/17 03:08:49;;;;;;;1.25;0.57;;;18.90;60.70;;;;;;5031687;28;20049;-63
2022/03/17 03:11:15;;;;;;;1.52;0.88;;;18.90;60.70;;;;;;5031543;28;20030;-63
2022/03/17 03:13:40;;;;;;;1.23;0.65;;;18.90;60.70;;;;;;5050504;28;20398;-63
2022/03/17 03:16:06;;;;;;;1.90;1.10;;;18.90;60.70;;;;;;5051325;28;20547;-63
2022/03/17 03:18:32;;;;;;;0.55;0.45;;;18.90;60.70;;;;;;5050540;28;20096;-63
2022/03/17 03:20:57;;;;;;;1.80;0.60;;;18.90;60.70;;;;;;5051405;28;20464;-63
2022/03/17 03:23:23;;;;;;;1.30;0.60;;;18.90;60.80;;;;;;5051452;28;20037;-63
2022/03/17 03:25:49;;;;;;;1.85;0.70;;;18.90;60.70;;;;;;5050083;28;20029;-63
2022/03/17 03:28:14;;;;;;;1.92;0.60;;;18.90;60.80;;;;;;5052015;28;20017;-63
2022/03/17 03:30:40;;;;;;;1.30;0.68;;;18.90;60.80;;;;;;5055097;28;20029;-63
2022/03/17 03:33:07;;;;;;;1.38;0.77;;;18.90;60.80;;;;;;5054812;28;20028;-63
2022/03/17 03:38:19;;;;;;;2.78;0.65;;;18.90;60.80;;;;;;5039398;28;20036;-63
2022/03/17 03:40:45;;;;;;;1.05;0.82;;;18.90;60.90;;;;;;5054933;28;20404;-63
2022/03/17 03:43:11;;;;;;;1.88;0.85;;;18.90;60.90;;;;;;5053449;28;20037;-63
2022/03/17 03:45:37;;;;;;;2.22;0.70;;;18.80;60.80;;;;;;5053734;28;20059;-63
2022/03/17 03:48:03;;;;;;;0.63;0.35;;;18.80;60.90;;;;;;5054763;28;20028;-63
2022/03/17 03:50:30;;;;;;;0.65;0.50;;;18.80;60.90;;;;;;5054682;28;20027;-63
2022/03/17 03:52:55;;;;;;;0.55;0.52;;;18.90;61.90;;;;;;5054375;28;20024;-63
2022/03/17 03:55:21;;;;;;;0.70;0.63;;;18.80;60.90;;;;;;5054605;28;20029;-63
2022/03/17 03:57:47;;;;;;;1.88;0.60;;;18.80;60.90;;;;;;5054613;28;20032;-63
2022/03/17 04:00:20;;;;;;;1.27;0.75;;;18.80;60.90;;;;;;5054413;28;20495;-63
2022/03/17 04:02:46;;;;;;;1.00;0.60;;;18.80;60.90;;;;;;5054353;28;20028;-63
2022/03/17 04:05:13;;;;;;;1.30;0.57;;;18.80;60.90;;;;;;5045597;28;20025;-63
2022/03/17 04:07:38;;;;;;;1.20;0.32;;;18.80;60.90;;;;;;5034371;28;20052;-63
2022/03/17 04:10:05;;;;;;;1.00;0.63;;;18.80;60.90;;;;;;5034528;28;20475;-63
2022/03/17 04:12:31;;;;;;;2.25;0.40;;;18.80;61.00;;;;;;5034351;28;20022;-63
2022/03/17 04:14:57;;;;;;;1.30;0.50;;;18.80;61.00;;;;;;5052956;28;20032;-63
2022/03/17 04:17:23;;;;;;;0.90;0.60;;;18.80;61.00;;;;;;5053977;28;20387;-63
2022/03/17 04:19:49;;;;;;;0.73;0.40;;;18.80;62.00;;;;;;5054081;28;20021;-63
2022/03/17 04:22:14;;;;;;;2.35;0.60;;;18.80;61.00;;;;;;5053773;28;20017;-63
2022/03/17 04:24:40;;;;;;;1.00;0.52;;;18.80;61.00;;;;;;5053907;28;20103;-63
2022/03/17 04:27:06;;;;;;;0.75;0.55;;;18.80;61.10;;;;;;5053928;28;20029;-63
2022/03/17 04:29:32;;;;;;;4.65;0.68;;;18.80;61.10;;;;;;5053953;28;20013;-63
2022/03/17 04:31:58;;;;;;;1.75;0.80;;;18.80;61.10;;;;;;5054017;28;20025;-63
2022/03/17 04:34:23;;;;;;;3.33;0.70;;;18.80;61.10;;;;;;5052473;28;20025;-63
2022/03/17 04:36:49;;;;;;;3.38;0.60;;;18.80;61.20;;;;;;5053687;28;20578;-63
2022/03/17 04:39:14;;;;;;;1.90;0.70;;;18.80;61.20;;;;;;5053422;28;20033;-63
2022/03/17 04:41:40;;;;;;;0.43;0.40;;;18.80;61.20;;;;;;5053422;28;20471;-63
2022/03/17 04:44:06;;;;;;;2.05;0.70;;;18.80;61.20;;;;;;5053621;28;20096;-63
2022/03/17 04:46:32;;;;;;;1.63;0.50;;;18.80;61.30;;;;;;5035721;28;20048;-63
2022/03/17 04:48:58;;;;;;;2.28;0.60;;;18.80;61.30;;;;;;5053666;28;20475;-63
2022/03/17 04:51:24;;;;;;;2.00;0.65;;;18.80;61.30;;;;;;5053206;28;20033;-63
2022/03/17 04:53:49;;;;;;;0.47;0.32;;;18.70;61.20;;;;;;5052510;28;20029;-63
2022/03/17 04:56:16;;;;;;;1.77;0.60;;;18.70;61.20;;;;;;5053102;28;20025;-63
2022/03/17 04:58:42;;;;;;;1.88;0.70;;;18.70;61.30;;;;;;5052213;28;20372;-63
2022/03/17 05:01:08;;;;;;;0.77;0.50;;;18.70;61.30;;;;;;5052138;28;20039;-63
2022/03/17 05:03:34;;;;;;;1.20;0.60;;;18.70;61.30;;;;;;5053261;28;20013;-63
2022/03/17 05:06:00;;;;;;;1.95;0.60;;;18.70;61.30;;;;;;5037755;28;20022;-63
2022/03/17 05:08:26;;;;;;;0.85;0.47;;;18.70;61.40;;;;;;5033144;28;20087;-63
2022/03/17 05:10:55;;;;;;;0.77;0.55;;;18.70;61.40;;;;;;5032039;28;20399;-63
2022/03/17 05:13:22;;;;;;;1.55;0.65;;;18.70;61.40;;;;;;5037496;28;20021;-63
2022/03/17 05:15:48;;;;;;;1.65;0.80;;;18.70;61.40;;;;;;5035396;28;20029;-63
2022/03/17 05:18:14;;;;;;;1.42;0.70;;;18.70;61.40;;;;;;5052960;28;20029;-63
2022/03/17 05:20:42;;;;;;;1.30;0.70;;;18.70;61.40;;;;;;5051765;28;20096;-63
2022/03/17 05:23:09;;;;;;;1.02;0.45;;;18.70;61.40;;;;;;5051538;28;20087;-63
2022/03/17 05:25:35;;;;;;;0.95;0.55;;;18.70;61.40;;;;;;5051731;28;20430;-63
2022/03/17 05:28:01;;;;;;;1.23;0.50;;;18.70;61.40;;;;;;5052949;28;20029;-63
2022/03/17 05:30:26;;;;;;;1.85;0.50;;;18.70;61.40;;;;;;5051608;28;20029;-63
2022/03/17 05:32:52;;;;;;;1.27;0.60;;;18.70;61.40;;;;;;5051657;28;20028;-63
2022/03/17 05:35:18;;;;;;;2.13;0.70;;;18.70;61.40;;;;;;5051242;28;20033;-63
2022/03/17 05:37:44;;;;;;;0.70;0.60;;;18.70;61.40;;;;;;5052470;28;20395;-63
2022/03/17 05:40:14;;;;;;;1.13;0.80;;;18.70;61.40;;;;;;5051455;28;20513;-63
2022/03/17 05:42:41;;;;;;;1.33;0.60;;;18.70;61.50;;;;;;5051557;28;20017;-63
2022/03/17 05:45:07;;;;;;;0.82;0.50;;;18.60;61.50;;;;;;5052624;28;20031;-63
2022/03/17 05:47:40;;;;;;;1.48;0.50;;;18.70;61.50;;;;;;5052530;28;20025;-63
2022/03/17 05:50:07;;;;;;;1.75;0.80;;;18.70;61.60;;;;;;5051093;28;20099;-63
2022/03/17 05:52:34;;;;;;;1.77;0.55;;;18.60;61.50;;;;;;5052474;28;20429;-63
2022/03/17 05:55:00;;;;;;;1.05;0.52;;;18.60;61.60;;;;;;5052341;28;20368;-63
2022/03/17 05:57:25;;;;;;;1.15;0.50;;;18.60;61.60;;;;;;5052210;28;20025;-63
2022/03/17 05:59:51;;;;;;;1.55;0.65;;;18.60;61.60;;;;;;5052503;28;20028;-63
2022/03/17 06:02:16;;;;;;;1.42;0.57;;;18.60;61.60;;;;;;5052060;28;20096;-63
2022/03/17 06:04:42;;;;;;;0.90;0.50;;;18.60;61.60;;;;;;5048667;28;20036;-63
2022/03/17 06:07:08;;;;;;;1.40;0.57;;;18.60;61.70;;;;;;5032446;28;20349;-63
2022/03/17 06:09:33;;;;;;;1.02;0.50;;;18.60;61.70;;;;;;5031254;28;20026;-63
2022/03/17 06:12:00;;;;;;;0.60;0.40;;;18.60;61.70;;;;;;5047810;28;20021;-63
2022/03/17 06:14:27;;;;;;;1.83;0.45;;;18.60;61.70;;;;;;5042369;28;20033;-63
2022/03/17 06:16:55;;;;;;;0.93;0.40;;;18.60;61.80;;;;;;5031458;28;20076;-63
2022/03/17 06:19:21;;;;;;;1.23;0.50;;;18.60;61.80;;;;;;5031191;28;20030;-63
2022/03/17 06:21:48;;;;;;;0.93;0.50;;;18.60;61.90;;;;;;5020490;28;20380;-63
2022/03/17 06:24:17;;;;;;;0.60;0.40;;;18.60;61.90;;;;;;5044561;28;20045;-63
2022/03/17 06:26:44;;;;;;;0.63;0.43;;;18.60;61.90;;;;;;5051932;28;20017;-63
2022/03/17 06:29:09;;;;;;;0.95;0.47;;;18.60;61.90;;;;;;5034339;28;20025;-63
2022/03/17 06:31:38;;;;;;;1.08;0.60;;;18.60;61.90;;;;;;5051880;28;20033;-63
2022/03/17 06:34:04;;;;;;;3.42;0.50;;;18.60;61.90;;;;;;5051722;28;20477;-63
2022/03/17 06:36:29;;;;;;;0.68;0.40;;;18.60;61.90;;;;;;5051973;28;20112;-63
2022/03/17 06:38:55;;;;;;;0.93;0.60;;;18.50;61.90;;;;;;5051791;28;20034;-63
2022/03/17 06:41:21;;;;;;;0.90;0.52;;;18.50;61.90;;;;;;5034078;28;20395;-63
2022/03/17 06:43:47;;;;;;;0.95;0.70;;;18.50;61.90;;;;;;5051852;28;20140;-63
2022/03/17 06:46:15;;;;;;;1.48;0.57;;;18.50;61.90;;;;;;5051866;28;20021;-63
2022/03/17 06:48:40;;;;;;;0.82;0.50;;;18.50;61.90;;;;;;5033939;28;20031;-63
2022/03/17 06:51:06;;;;;;;1.85;0.60;;;18.60;62.00;;;;;;5046000;28;20029;-63
2022/03/17 06:53:32;;;;;;;1.42;0.75;;;18.50;62.00;;;;;;5031001;28;20035;-63
2022/03/17 06:56:01;;;;;;;0.50;0.50;;;18.50;62.00;;;;;;5037971;28;20033;-63
2022/03/17 06:58:27;;;;;;;0.80;0.50;;;18.60;62.10;;;;;;5050825;28;20032;-63
2022/03/17 07:00:53;;;;;;;1.05;0.47;;;18.50;62.00;;;;;;5051054;28;20024;-63
2022/03/17 07:03:18;;;;;;;1.83;0.50;;;18.50;61.90;;;;;;5051539;28;20136;-63
2022/03/17 07:05:44;;;;;;;0.57;0.50;;;18.50;61.90;;;;;;5043048;28;20060;-63
2022/03/17 07:08:10;;;;;;;0.90;0.40;;;18.60;61.90;;;;;;5034255;28;20111;-63
2022/03/17 07:10:35;;;;;;;1.63;0.30;;;18.60;61.80;;;;;;5034330;28;20396;-63
2022/03/17 07:13:01;;;;;;;1.55;0.52;;;18.50;61.70;;;;;;5038308;28;20021;-63
2022/03/17 07:15:28;;;;;;;0.57;0.45;;;18.50;61.70;;;;;;5055318;28;20028;-63
2022/03/17 07:17:54;;;;;;;1.98;0.60;;;18.60;61.70;;;;;;5051960;28;20024;-63
2022/03/17 07:20:19;;;;;;;0.55;0.30;;;18.60;61.60;;;;;;5053496;28;20086;-63
2022/03/17 07:22:48;;;;;;;1.15;0.47;;;18.60;61.60;;;;;;5053335;28;20025;-63
2022/03/17 07:25:17;;;;;;;1.48;0.50;;;18.60;61.50;;;;;;5053608;28;20024;-63
2022/03/17 07:27:44;;;;;;;1.20;0.60;;;18.60;61.50;;;;;;5053513;28;20082;-63
2022/03/17 07:30:12;;;;;;;1.05;0.70;;;18.60;61.40;;;;;;5053489;28;20017;-63
2022/03/17 07:32:38;;;;;;;0.82;0.60;;;18.60;61.40;;;;;;5019249;28;20021;-63
2022/03/17 07:35:05;;;;;;;2.15;0.55;;;18.60;61.40;;;;;;5053528;28;20054;-63
2022/03/17 07:37:30;;;;;;;6.10;1.10;;;18.60;61.40;;;;;;5035171;28;20122;-63
2022/03/17 07:39:56;;;;;;;9.65;1.50;;;18.60;61.40;;;;;;5016908;28;20494;-63
2022/03/17 07:42:22;;;;;;;8.05;1.30;;;18.60;61.30;;;;;;5034793;28;20057;-63
2022/03/17 07:44:47;;;;;;;8.38;1.65;;;18.70;61.40;;;;;;5033558;28;20101;-63
2022/03/17 07:47:13;;;;;;;5.90;2.03;;;18.70;61.50;;;;;;5016539;28;20377;-63
2022/03/17 07:49:39;;;;;;;9.10;2.08;;;18.70;61.40;;;;;;5016848;28;20018;-63
2022/03/17 07:52:05;;;;;;;9.00;1.98;;;18.70;61.40;;;;;;5033026;28;20388;-63
2022/03/17 07:54:31;;;;;;;6.18;1.42;;;18.70;61.40;;;;;;5000314;28;20091;-63
2022/03/17 07:56:57;;;;;;;4.72;1.45;;;18.70;61.40;;;;;;5034455;28;20022;-63
2022/03/17 07:59:24;;;;;;;4.53;1.85;;;18.80;61.50;;;;;;5016560;28;20104;-63
2022/03/17 08:01:50;;;;;;;8.13;1.65;;;18.80;61.50;;;;;;5034629;28;20028;-63
2022/03/17 08:04:15;;;;;;;5.70;1.42;;;18.80;61.50;;;;;;5034423;28;20025;-63
2022/03/17 08:06:42;;;;;;;6.70;1.75;;;18.80;61.50;;;;;;5031616;28;20092;-63
2022/03/17 08:09:07;;;;;;;5.15;1.30;;;18.80;61.30;;;;;;5049686;28;20021;-63
2022/03/17 08:11:33;;;;;;;5.07;1.42;;;18.80;61.30;;;;;;5041850;28;20108;-63
2022/03/17 08:13:58;;;;;;;6.07;1.77;;;18.80;61.30;;;;;;5036338;28;20064;-63
2022/03/17 08:16:24;;;;;;;2.65;1.02;;;18.80;61.30;;;;;;5053073;28;20053;-63
2022/03/17 08:18:50;;;;;;;5.65;1.83;;;18.80;61.30;;;;;;5052810;28;20096;-63
2022/03/17 08:21:17;;;;;;;5.45;1.90;;;18.80;61.20;;;;;;5054197;28;20022;-63
2022/03/17 08:23:42;;;;;;;4.57;1.50;;;18.80;61.20;;;;;;5053942;28;20087;-63
2022/03/17 08:26:08;;;;;;;3.83;1.35;;;18.80;61.20;;;;;;5054057;28;20025;-63
2022/03/17 08:28:34;;;;;;;4.65;1.30;;;18.80;61.20;;;;;;5038668;28;20018;-63
2022/03/17 08:30:59;;;;;;;5.30;1.58;;;18.80;61.20;;;;;;5049490;28;20037;-63
2022/03/17 08:33:25;;;;;;;4.78;1.20;;;18.80;61.10;;;;;;5049310;28;20024;-63
2022/03/17 08:35:52;;;;;;;3.95;1.23;;;18.80;61.10;;;;;;5049431;28;20029;-63
2022/03/17 08:38:17;;;;;;;7.45;1.60;;;18.80;61.20;;;;;;5033801;28;20032;-63
2022/03/17 08:40:43;;;;;;;3.75;1.27;;;18.80;61.10;;;;;;5033877;28;20025;-63
2022/03/17 08:43:09;;;;;;;2.38;0.95;;;18.80;61.10;;;;;;5048983;28;20052;-63
2022/03/17 08:51:03;;;;;;;3.90;1.00;;;18.80;61.10;;;;;;5052617;28;20043;-63
2022/03/17 08:53:29;;;;;;;5.45;1.50;;;18.80;61.10;;;;;;5052309;28;20029;-63
2022/03/17 08:55:55;;;;;;;3.70;1.35;;;18.80;61.00;;;;;;5052377;28;20028;-63
2022/03/17 08:58:23;;;;;;;2.92;1.15;;;18.90;61.10;;;;;;5053255;28;20053;-63
2022/03/17 09:00:48;;;;;;;3.97;1.38;;;18.80;61.00;;;;;;5053276;28;20506;-63
2022/03/17 09:03:14;;;;;;;3.55;1.30;;;18.90;61.10;;;;;;5035570;28;20029;-63
2022/03/17 09:05:41;;;;;;;4.78;1.27;;;18.90;61.00;;;;;;5041732;28;20101;-63
2022/03/17 09:08:07;;;;;;;2.53;1.30;;;18.90;61.00;;;;;;5048693;28;20057;-63
2022/03/17 09:10:36;;;;;;;4.97;1.25;;;18.90;61.00;;;;;;5033184;28;20111;-63
2022/03/17 09:13:08;;;;;;;4.57;1.30;;;18.90;60.90;;;;;;5031916;28;20060;-63
2022/03/17 09:15:35;;;;;;;4.18;1.10;;;18.90;61.00;;;;;;5047709;28;20025;-63
2022/03/17 09:18:00;;;;;;;4.60;1.08;;;18.90;60.90;;;;;;5032297;28;20111;-63
2022/03/17 09:20:26;;;;;;;2.80;1.10;;;18.80;60.90;;;;;;5053012;28;20056;-63
2022/03/17 09:22:52;;;;;;;4.35;1.10;;;18.80;60.80;;;;;;5052669;28;20045;-63
2022/03/17 09:25:23;;;;;;;3.42;1.45;;;18.90;60.90;;;;;;5053047;28;20114;-63
2022/03/17 09:27:50;;;;;;;3.03;1.20;;;18.90;60.90;;;;;;5051168;28;20033;-63
2022/03/17 09:30:15;;;;;;;2.08;1.17;;;18.90;60.90;;;;;;5052715;28;20025;-63
2022/03/17 09:32:41;;;;;;;3.42;1.10;;;18.90;60.80;;;;;;5052774;28;20033;-63
2022/03/17 09:35:07;;;;;;;3.15;1.00;;;18.90;60.80;;;;;;5052986;28;20029;-63
2022/03/17 09:37:32;;;;;;;2.92;1.13;;;18.90;60.80;;;;;;5052438;28;20025;-63
2022/03/17 09:39:58;;;;;;;2.55;1.00;;;18.90;60.70;;;;;;5051606;28;20079;-63
2022/03/17 09:42:24;;;;;;;3.28;0.93;;;18.90;60.70;;;;;;5052345;28;20021;-63
2022/03/17 09:44:53;;;;;;;2.65;0.90;;;18.90;60.70;;;;;;5052552;28;20017;-63
2022/03/17 09:47:20;;;;;;;2.20;1.13;;;18.90;60.70;;;;;;5051507;28;20021;-63
2022/03/17 09:49:49;;;;;;;2.72;1.00;;;18.90;60.70;;;;;;5052489;28;20079;-63
2022/03/17 09:52:18;;;;;;;3.45;0.85;;;18.90;60.70;;;;;;5035083;28;20032;-63
2022/03/17 09:54:44;;;;;;;3.75;0.95;;;18.90;60.60;;;;;;5051078;28;20025;-63
2022/03/17 09:57:10;;;;;;;3.50;1.17;;;18.90;60.60;;;;;;5052302;28;20033;-63
2022/03/17 09:59:36;;;;;;;1.25;0.90;;;18.90;60.60;;;;;;5052421;28;20029;-63
2022/03/17 10:02:01;;;;;;;2.70;1.15;;;18.90;60.60;;;;;;5052352;28;20031;-63
2022/03/17 10:04:31;;;;;;;3.78;1.10;;;18.90;60.60;;;;;;5049919;28;20032;-63
2022/03/17 10:06:58;;;;;;;1.95;1.02;;;18.90;60.50;;;;;;5047611;28;20384;-63
2022/03/17 10:09:24;;;;;;;2.00;1.02;;;18.90;60.60;;;;;;5047723;28;20025;-63
2022/03/17 10:12:06;;;;;;;1.55;0.90;;;18.90;60.50;;;;;;5047570;28;20025;-63
2022/03/17 10:14:37;;;;;;;1.55;0.88;;;18.90;60.40;;;;;;5047817;28;20036;-63
2022/03/17 10:17:07;;;;;;;3.83;0.80;;;18.90;60.50;;;;;;5031018;28;20059;-63
2022/03/17 10:19:33;;;;;;;2.08;0.93;;;18.90;60.60;;;;;;5045195;28;20029;-63
2022/03/17 10:22:25;;;;;;;2.78;0.90;;;18.90;60.50;;;;;;5050883;28;20032;-63
2022/03/17 10:24:52;;;;;;;3.35;1.15;;;19.00;60.20;;;;;;5048549;28;20049;-63
2022/03/17 10:27:39;;;;;;;3.72;0.88;;;18.90;60.50;;;;;;5052256;28;20039;-63
2022/03/17 10:30:08;;;;;;;1.25;0.73;;;18.90;60.20;;;;;;5052023;28;20078;-63
2022/03/17 10:32:34;;;;;;;2.28;0.70;;;18.90;60.50;;;;;;5052077;28;20028;-63
2022/03/17 10:35:00;;;;;;;2.05;0.85;;;18.90;60.50;;;;;;5050693;28;20059;-63
2022/03/17 10:37:26;;;;;;;2.05;0.70;;;18.90;60.50;;;;;;5051910;28;20057;-63
2022/03/17 10:39:53;;;;;;;1.60;1.00;;;18.90;60.40;;;;;;5037407;28;20028;-63
2022/03/17 10:42:26;;;;;;;1.85;0.80;;;18.90;60.40;;;;;;5054773;28;20062;-63
2022/03/17 10:45:00;;;;;;;1.65;0.70;;;18.90;60.40;;;;;;5054987;28;20036;-63
2022/03/17 10:47:34;;;;;;;3.22;0.98;;;18.90;60.30;;;;;;5038178;28;20021;-63
2022/03/17 10:50:08;;;;;;;1.10;0.88;;;18.90;60.30;;;;;;5054627;28;20025;-63
2022/03/17 10:52:56;;;;;;;2.10;0.82;;;18.90;60.30;;;;;;5056014;28;20068;-63
2022/03/17 10:55:26;;;;;;;1.35;0.70;;;19.00;60.20;;;;;;5054260;28;20032;-63
2022/03/17 10:58:13;;;;;;;2.17;1.02;;;18.90;60.30;;;;;;5055567;28;20025;-63
2022/03/17 11:00:57;;;;;;;2.22;0.80;;;18.90;60.20;;;;;;5055860;28;20104;-63
2022/03/17 11:03:24;;;;;;;1.38;0.80;;;18.90;60.20;;;;;;5055792;28;20475;-63
2022/03/17 11:05:53;;;;;;;3.15;1.00;;;18.90;60.30;;;;;;5041653;28;20030;-63
2022/03/17 11:08:22;;;;;;;0.85;0.60;;;18.90;60.20;;;;;;5035284;28;20495;-63
2022/03/17 11:10:47;;;;;;;0.77;0.77;;;19.00;60.20;;;;;;5034277;28;20046;-63
2022/03/17 11:13:13;;;;;;;1.33;0.68;;;18.90;60.20;;;;;;5035486;28;20519;-63
2022/03/17 11:15:41;;;;;;;0.98;0.65;;;18.90;60.20;;;;;;5035386;28;20025;-63
2022/03/17 11:18:10;;;;;;;2.25;0.77;;;18.90;60.20;;;;;;5036566;28;20025;-63
2022/03/17 11:20:36;;;;;;;1.38;0.75;;;19.00;60.20;;;;;;5037452;28;20025;-63
2022/03/17 11:23:15;;;;;;;0.52;0.47;;;18.90;60.10;;;;;;5053703;28;20048;-63
2022/03/17 11:25:59;;;;;;;1.42;0.70;;;19.00;60.10;;;;;;5055211;28;20036;-63
2022/03/17 11:28:32;;;;;;;0.85;0.50;;;18.90;60.10;;;;;;5054250;28;20036;-63
2022/03/17 11:30:58;;;;;;;;;;;18.90;60.00;;;;;;5055344;28;20056;-63
2022/03/17 11:33:29;;;;;;;1.10;0.60;;;18.90;60.00;;;;;;5055161;28;20386;-63
2022/03/17 11:35:59;;;;;;;1.13;0.60;;;18.90;60.30;;;;;;5053752;28;20160;-63
2022/03/17 11:38:32;;;;;;;1.13;0.60;;;18.90;60.20;;;;;;5054669;28;20494;-63
2022/03/17 11:41:14;;;;;;;1.25;0.70;;;18.90;60.20;;;;;;5053733;28;20013;-63
2022/03/17 11:43:46;;;;;;;2.45;0.85;;;18.90;60.10;;;;;;5054809;28;20503;-63
2022/03/17 11:46:13;;;;;;;0.63;0.50;;;18.90;60.10;;;;;;5054902;28;20070;-63
2022/03/17 11:48:39;;;;;;;1.58;0.70;;;18.90;60.10;;;;;;5053714;28;20028;-63
2022/03/17 11:51:05;;;;;;;0.80;0.60;;;18.90;60.00;;;;;;5053107;28;20029;-63
2022/03/17 11:53:49;;;;;;;2.92;0.80;;;18.90;60.00;;;;;;5036669;28;20033;-63
2022/03/17 11:56:47;;;;;;;0.90;0.50;;;19.00;60.00;;;;;;5054715;28;20506;-63
2022/03/17 11:59:18;;;;;;;0.55;0.43;;;19.00;59.90;;;;;;5054567;28;20055;-63
2022/03/17 12:01:49;;;;;;;0.77;0.50;;;18.90;60.00;;;;;;5037088;28;20025;-63
2022/03/17 12:04:30;;;;;;;1.73;0.50;;;19.00;60.10;;;;;;5037282;28;20022;-63
2022/03/17 12:07:07;;;;;;;0.90;0.52;;;19.00;59.90;;;;;;5034180;28;20026;-63
2022/03/17 12:09:37;;;;;;;1.13;0.50;;;19.00;59.90;;;;;;5016886;28;20014;-63
2022/03/17 12:12:04;;;;;;;0.98;0.47;;;19.00;60.00;;;;;;5017232;28;20033;-63
2022/03/17 12:14:29;;;;;;;1.08;0.50;;;19.00;60.00;;;;;;5016989;28;20071;-63
2022/03/17 12:16:58;;;;;;;0.88;0.57;;;19.00;59.90;;;;;;5034332;28;20029;-63
2022/03/17 12:19:35;;;;;;;1.35;0.65;;;19.00;59.90;;;;;;5033932;28;20022;-63
2022/03/17 12:22:01;;;;;;;1.35;0.60;;;19.00;59.80;;;;;;5034027;28;20087;-63
2022/03/17 12:24:50;;;;;;;0.85;0.60;;;19.00;59.90;;;;;;5050543;28;20049;-63
2022/03/17 12:27:30;;;;;;;1.42;0.60;;;19.00;59.60;;;;;;5054106;28;20047;-63
2022/03/17 12:30:02;;;;;;;0.52;0.40;;;19.00;59.90;;;;;;5038151;28;20507;-63
2022/03/17 12:32:33;;;;;;;0.98;0.60;;;19.00;59.90;;;;;;5054177;28;20035;-63
2022/03/17 12:34:59;;;;;;;1.15;0.50;;;19.00;59.80;;;;;;5053700;28;20032;-63
2022/03/17 12:37:27;;;;;;;1.73;0.68;;;19.00;59.80;;;;;;5036239;28;20033;-63
2022/03/17 12:39:53;;;;;;;1.08;0.70;;;19.00;59.80;;;;;;5036021;28;20027;-63
2022/03/17 12:42:27;;;;;;;1.05;0.40;;;19.00;59.80;;;;;;5053974;28;20510;-63
2022/03/17 12:45:00;;;;;;;0.75;0.60;;;19.10;59.70;;;;;;5036002;28;20036;-63
2022/03/17 12:47:26;;;;;;;1.40;0.57;;;19.10;59.80;;;;;;5035965;28;20550;-63
2022/03/17 12:49:52;;;;;;;1.02;0.45;;;19.10;59.80;;;;;;5035919;28;20016;-63
2022/03/17 12:52:21;;;;;;;0.88;0.52;;;19.10;59.80;;;;;;5053600;28;20052;-63
2022/03/17 12:54:50;;;;;;;1.27;0.70;;;19.10;59.70;;;;;;5053337;28;20021;-63
2022/03/17 12:57:16;;;;;;;0.93;0.40;;;19.10;59.70;;;;;;5053566;28;20050;-63
2022/03/17 12:59:41;;;;;;;0.60;0.57;;;19.10;59.80;;;;;;5035557;28;20506;-63
2022/03/17 13:02:07;;;;;;;1.05;0.50;;;19.10;59.70;;;;;;5052722;28;20021;-63
2022/03/17 13:04:39;;;;;;;0.82;0.30;;;19.10;59.70;;;;;;5053214;28;20022;-63